sensor_id;sensor_type;location;lat;lon;timestamp;temperature;humidity
3770;DHT22;1900;48.890;9.190;2022-09-13T00:01:14;22.60;51.00
3770;DHT22;1900;48.890;9.190;2022-09-13T00:03:40;22.50;50.90
3770;DHT22;1900;48.890;9.190;2022-09-13T00:06:10;22.50;51.00
3770;DHT22;1900;48.890;9.190;2022-09-13T00:08:36;22.50;51.00
3770;DHT22;1900;48.890;9.190;2022-09-13T00:11:02;22.50;51.00
3770;DHT22;1900;48.890;9.190;2022-09-13T00:13:28;22.50;51.00
3770;DHT22;1900;48.890;9.190;2022-09-13T00:15:54;22.40;51.00
3770;DHT22;1900;48.890;9.190;2022-09-13T00:18:19;22.40;51.20
3770;DHT22;1900;48.890;9.190;2022-09-13T00:20:45;22.40;51.20
3770;DHT22;1900;48.890;9.190;2022-09-13T00:23:11;22.40;51.20
3770;DHT22;1900;48.890;9.190;2022-09-13T00:25:37;22.30;51.00
3770;DHT22;1900;48.890;9.190;2022-09-13T00:28:04;22.30;51.10
3770;DHT22;1900;48.890;9.190;2022-09-13T00:30:30;22.30;51.10
3770;DHT22;1900;48.890;9.190;2022-09-13T00:32:55;22.20;51.10
3770;DHT22;1900;48.890;9.190;2022-09-13T00:35:22;22.20;51.10
3770;DHT22;1900;48.890;9.190;2022-09-13T00:37:48;22.20;51.20
3770;DHT22;1900;48.890;9.190;2022-09-13T00:40:14;22.20;51.30
3770;DHT22;1900;48.890;9.190;2022-09-13T00:42:40;22.10;51.80
3770;DHT22;1900;48.890;9.190;2022-09-13T00:47:52;22.10;51.30
3770;DHT22;1900;48.890;9.190;2022-09-13T00:50:41;22.10;51.30
3770;DHT22;1900;48.890;9.190;2022-09-13T00:53:13;22.00;51.40
3770;DHT22;1900;48.890;9.190;2022-09-13T00:55:47;22.00;51.30
3770;DHT22;1900;48.890;9.190;2022-09-13T00:58:20;22.00;51.40
3770;DHT22;1900;48.890;9.190;2022-09-13T01:00:47;22.00;51.50
3770;DHT22;1900;48.890;9.190;2022-09-13T01:03:14;21.90;51.40
3770;DHT22;1900;48.890;9.190;2022-09-13T01:05:47;21.90;51.50
3770;DHT22;1900;48.890;9.190;2022-09-13T01:08:15;21.90;51.60
3770;DHT22;1900;48.890;9.190;2022-09-13T01:10:49;21.90;51.50
3770;DHT22;1900;48.890;9.190;2022-09-13T01:13:18;21.90;51.60
3770;DHT22;1900;48.890;9.190;2022-09-13T01:15:45;21.90;51.70
3770;DHT22;1900;48.890;9.190;2022-09-13T01:18:11;21.90;51.70
3770;DHT22;1900;48.890;9.190;2022-09-13T01:34:50;21.70;51.80
3770;DHT22;1900;48.890;9.190;2022-09-13T01:48:17;21.70;51.90
3770;DHT22;1900;48.890;9.190;2022-09-13T01:50:52;21.70;52.00
3770;DHT22;1900;48.890;9.190;2022-09-13T01:53:27;21.60;51.80
3770;DHT22;1900;48.890;9.190;2022-09-13T01:56:03;21.60;51.80
3770;DHT22;1900;48.890;9.190;2022-09-13T01:58:41;21.60;51.90
3770;DHT22;1900;48.890;9.190;2022-09-13T02:06:41;21.70;52.10
3770;DHT22;1900;48.890;9.190;2022-09-13T02:09:19;21.70;52.20
3770;DHT22;1900;48.890;9.190;2022-09-13T02:11:49;21.70;52.10
3770;DHT22;1900;48.890;9.190;2022-09-13T02:14:24;21.70;52.10
3770;DHT22;1900;48.890;9.190;2022-09-13T02:17:15;21.70;52.10
3770;DHT22;1900;48.890;9.190;2022-09-13T02:22:14;21.70;52.10
3770;DHT22;1900;48.890;9.190;2022-09-13T02:24:45;21.70;52.10
3770;DHT22;1900;48.890;9.190;2022-09-13T02:27:17;21.70;52.20
3770;DHT22;1900;48.890;9.190;2022-09-13T02:29:45;21.70;52.20
3770;DHT22;1900;48.890;9.190;2022-09-13T02:32:24;21.70;52.10
3770;DHT22;1900;48.890;9.190;2022-09-13T02:35:35;21.70;52.10
3770;DHT22;1900;48.890;9.190;2022-09-13T02:38:10;21.60;52.10
3770;DHT22;1900;48.890;9.190;2022-09-13T02:40:45;21.60;52.00
3770;DHT22;1900;48.890;9.190;2022-09-13T02:43:21;21.60;52.00
3770;DHT22;1900;48.890;9.190;2022-09-13T02:46:03;21.50;51.90
3770;DHT22;1900;48.890;9.190;2022-09-13T02:48:48;21.50;52.00
3770;DHT22;1900;48.890;9.190;2022-09-13T02:51:49;21.50;52.00
3770;DHT22;1900;48.890;9.190;2022-09-13T02:57:00;21.40;51.90
3770;DHT22;1900;48.890;9.190;2022-09-13T02:59:29;21.40;52.10
3770;DHT22;1900;48.890;9.190;2022-09-13T03:02:13;21.40;52.00
3770;DHT22;1900;48.890;9.190;2022-09-13T03:04:40;21.40;52.10
3770;DHT22;1900;48.890;9.190;2022-09-13T03:07:10;21.40;52.10
3770;DHT22;1900;48.890;9.190;2022-09-13T03:09:36;21.40;52.10
3770;DHT22;1900;48.890;9.190;2022-09-13T03:15:00;21.40;52.30
3770;DHT22;1900;48.890;9.190;2022-09-13T03:23:21;21.30;52.30
3770;DHT22;1900;48.890;9.190;2022-09-13T03:29:01;21.30;52.40
3770;DHT22;1900;48.890;9.190;2022-09-13T03:40:08;21.30;52.50
3770;DHT22;1900;48.890;9.190;2022-09-13T03:42:44;21.30;52.50
3770;DHT22;1900;48.890;9.190;2022-09-13T03:45:11;21.30;52.50
3770;DHT22;1900;48.890;9.190;2022-09-13T03:47:41;21.30;52.50
3770;DHT22;1900;48.890;9.190;2022-09-13T03:50:08;21.30;52.40
3770;DHT22;1900;48.890;9.190;2022-09-13T03:52:35;21.30;52.30
3770;DHT22;1900;48.890;9.190;2022-09-13T03:55:01;21.20;52.20
3770;DHT22;1900;48.890;9.190;2022-09-13T03:57:27;21.20;52.20
3770;DHT22;1900;48.890;9.190;2022-09-13T03:59:54;21.20;52.30
3770;DHT22;1900;48.890;9.190;2022-09-13T04:02:23;21.20;52.40
3770;DHT22;1900;48.890;9.190;2022-09-13T04:04:49;21.20;52.40
3770;DHT22;1900;48.890;9.190;2022-09-13T04:07:17;21.20;52.40
3770;DHT22;1900;48.890;9.190;2022-09-13T04:09:44;21.20;52.40
3770;DHT22;1900;48.890;9.190;2022-09-13T04:12:11;21.20;52.40
3770;DHT22;1900;48.890;9.190;2022-09-13T04:14:38;21.20;52.50
3770;DHT22;1900;48.890;9.190;2022-09-13T04:17:04;21.20;52.50
3770;DHT22;1900;48.890;9.190;2022-09-13T04:19:30;21.20;52.50
3770;DHT22;1900;48.890;9.190;2022-09-13T04:21:56;21.20;52.60
3770;DHT22;1900;48.890;9.190;2022-09-13T04:24:27;21.20;52.60
3770;DHT22;1900;48.890;9.190;2022-09-13T04:26:54;21.20;52.60
3770;DHT22;1900;48.890;9.190;2022-09-13T04:29:21;21.20;52.60
3770;DHT22;1900;48.890;9.190;2022-09-13T04:31:48;21.10;52.50
3770;DHT22;1900;48.890;9.190;2022-09-13T04:34:14;21.10;52.50
3770;DHT22;1900;48.890;9.190;2022-09-13T04:36:40;21.10;52.50
3770;DHT22;1900;48.890;9.190;2022-09-13T04:39:05;21.10;52.50
3770;DHT22;1900;48.890;9.190;2022-09-13T04:41:32;21.10;52.70
3770;DHT22;1900;48.890;9.190;2022-09-13T04:44:00;21.10;52.60
3770;DHT22;1900;48.890;9.190;2022-09-13T04:46:26;21.10;52.60
3770;DHT22;1900;48.890;9.190;2022-09-13T04:48:52;21.10;52.60
3770;DHT22;1900;48.890;9.190;2022-09-13T04:51:18;21.00;52.50
3770;DHT22;1900;48.890;9.190;2022-09-13T04:53:44;21.00;52.50
3770;DHT22;1900;48.890;9.190;2022-09-13T04:56:11;21.00;52.60
3770;DHT22;1900;48.890;9.190;2022-09-13T04:58:38;21.00;52.60
3770;DHT22;1900;48.890;9.190;2022-09-13T05:01:06;21.00;52.60
3770;DHT22;1900;48.890;9.190;2022-09-13T05:03:33;20.90;52.60
3770;DHT22;1900;48.890;9.190;2022-09-13T05:06:05;21.00;52.70
3770;DHT22;1900;48.890;9.190;2022-09-13T05:08:31;21.00;53.00
3770;DHT22;1900;48.890;9.190;2022-09-13T05:10:57;21.00;53.10
3770;DHT22;1900;48.890;9.190;2022-09-13T05:13:24;21.00;53.20
3770;DHT22;1900;48.890;9.190;2022-09-13T05:15:53;21.10;53.40
3770;DHT22;1900;48.890;9.190;2022-09-13T05:18:18;21.10;53.40
3770;DHT22;1900;48.890;9.190;2022-09-13T05:20:44;21.20;53.50
3770;DHT22;1900;48.890;9.190;2022-09-13T05:23:10;21.20;53.50
3770;DHT22;1900;48.890;9.190;2022-09-13T05:25:35;21.20;53.50
3770;DHT22;1900;48.890;9.190;2022-09-13T05:28:01;21.30;53.60
3770;DHT22;1900;48.890;9.190;2022-09-13T05:30:27;21.30;53.60
3770;DHT22;1900;48.890;9.190;2022-09-13T05:32:53;21.30;53.40
3770;DHT22;1900;48.890;9.190;2022-09-13T05:35:19;21.30;53.40
3770;DHT22;1900;48.890;9.190;2022-09-13T05:37:44;21.30;53.30
3770;DHT22;1900;48.890;9.190;2022-09-13T05:40:10;21.30;53.30
3770;DHT22;1900;48.890;9.190;2022-09-13T05:42:36;21.30;53.30
3770;DHT22;1900;48.890;9.190;2022-09-13T05:45:01;21.30;53.40
3770;DHT22;1900;48.890;9.190;2022-09-13T05:47:27;21.30;53.30
3770;DHT22;1900;48.890;9.190;2022-09-13T05:49:53;21.30;53.50
3770;DHT22;1900;48.890;9.190;2022-09-13T05:52:18;21.30;53.40
3770;DHT22;1900;48.890;9.190;2022-09-13T05:54:44;21.20;53.30
3770;DHT22;1900;48.890;9.190;2022-09-13T05:57:10;21.20;53.40
3770;DHT22;1900;48.890;9.190;2022-09-13T05:59:36;21.20;53.30
3770;DHT22;1900;48.890;9.190;2022-09-13T06:02:02;21.20;53.40
3770;DHT22;1900;48.890;9.190;2022-09-13T06:04:27;21.20;53.60
3770;DHT22;1900;48.890;9.190;2022-09-13T06:06:53;21.20;53.60
3770;DHT22;1900;48.890;9.190;2022-09-13T06:09:19;21.20;53.50
3770;DHT22;1900;48.890;9.190;2022-09-13T06:11:44;21.10;54.10
3770;DHT22;1900;48.890;9.190;2022-09-13T06:14:10;21.20;53.70
3770;DHT22;1900;48.890;9.190;2022-09-13T06:16:36;21.20;53.90
3770;DHT22;1900;48.890;9.190;2022-09-13T06:19:02;21.20;53.90
3770;DHT22;1900;48.890;9.190;2022-09-13T06:21:27;21.20;53.90
3770;DHT22;1900;48.890;9.190;2022-09-13T06:23:53;21.20;53.80
3770;DHT22;1900;48.890;9.190;2022-09-13T06:26:21;21.20;53.90
3770;DHT22;1900;48.890;9.190;2022-09-13T06:28:48;21.20;54.20
3770;DHT22;1900;48.890;9.190;2022-09-13T06:31:16;21.10;53.80
3770;DHT22;1900;48.890;9.190;2022-09-13T06:33:42;21.10;53.70
3770;DHT22;1900;48.890;9.190;2022-09-13T06:36:11;21.00;53.80
3770;DHT22;1900;48.890;9.190;2022-09-13T06:38:38;21.00;53.80
3770;DHT22;1900;48.890;9.190;2022-09-13T06:41:09;21.00;54.00
3770;DHT22;1900;48.890;9.190;2022-09-13T06:43:35;21.00;54.00
3770;DHT22;1900;48.890;9.190;2022-09-13T06:46:10;20.90;53.80
3770;DHT22;1900;48.890;9.190;2022-09-13T06:48:38;20.90;53.90
3770;DHT22;1900;48.890;9.190;2022-09-13T06:51:07;20.90;54.00
3770;DHT22;1900;48.890;9.190;2022-09-13T06:53:34;20.90;54.20
3770;DHT22;1900;48.890;9.190;2022-09-13T06:56:15;21.00;54.30
3770;DHT22;1900;48.890;9.190;2022-09-13T06:58:43;21.00;54.60
3770;DHT22;1900;48.890;9.190;2022-09-13T07:01:15;21.00;54.40
3770;DHT22;1900;48.890;9.190;2022-09-13T07:03:46;21.00;54.60
3770;DHT22;1900;48.890;9.190;2022-09-13T07:08:46;21.00;54.80
3770;DHT22;1900;48.890;9.190;2022-09-13T07:11:14;21.00;54.90
3770;DHT22;1900;48.890;9.190;2022-09-13T07:13:50;21.00;54.80
3770;DHT22;1900;48.890;9.190;2022-09-13T07:16:17;21.00;54.90
3770;DHT22;1900;48.890;9.190;2022-09-13T07:18:42;21.00;55.30
3770;DHT22;1900;48.890;9.190;2022-09-13T07:21:09;21.00;55.30
3770;DHT22;1900;48.890;9.190;2022-09-13T07:23:37;21.10;55.40
3770;DHT22;1900;48.890;9.190;2022-09-13T07:26:05;21.10;55.40
3770;DHT22;1900;48.890;9.190;2022-09-13T07:28:36;21.10;55.50
3770;DHT22;1900;48.890;9.190;2022-09-13T07:31:09;21.20;55.70
3770;DHT22;1900;48.890;9.190;2022-09-13T07:33:36;21.20;55.70
3770;DHT22;1900;48.890;9.190;2022-09-13T07:36:02;21.20;55.60
3770;DHT22;1900;48.890;9.190;2022-09-13T07:38:34;21.30;55.90
3770;DHT22;1900;48.890;9.190;2022-09-13T07:41:01;21.30;55.80
3770;DHT22;1900;48.890;9.190;2022-09-13T07:43:28;21.40;56.10
3770;DHT22;1900;48.890;9.190;2022-09-13T07:45:58;21.40;56.30
3770;DHT22;1900;48.890;9.190;2022-09-13T07:48:25;21.50;56.30
3770;DHT22;1900;48.890;9.190;2022-09-13T07:51:00;21.60;56.30
3770;DHT22;1900;48.890;9.190;2022-09-13T07:53:26;21.60;56.50
3770;DHT22;1900;48.890;9.190;2022-09-13T07:55:53;21.70;56.50
3770;DHT22;1900;48.890;9.190;2022-09-13T07:58:19;21.80;56.80
3770;DHT22;1900;48.890;9.190;2022-09-13T08:00:45;21.80;56.80
3770;DHT22;1900;48.890;9.190;2022-09-13T08:03:11;22.00;56.90
3770;DHT22;1900;48.890;9.190;2022-09-13T08:05:40;22.00;57.00
3770;DHT22;1900;48.890;9.190;2022-09-13T08:08:06;22.10;57.20
3770;DHT22;1900;48.890;9.190;2022-09-13T08:10:33;22.20;57.20
3770;DHT22;1900;48.890;9.190;2022-09-13T08:12:59;22.20;57.20
3770;DHT22;1900;48.890;9.190;2022-09-13T08:15:26;22.30;57.40
3770;DHT22;1900;48.890;9.190;2022-09-13T08:17:52;22.40;57.30
3770;DHT22;1900;48.890;9.190;2022-09-13T08:20:21;22.50;57.40
3770;DHT22;1900;48.890;9.190;2022-09-13T08:22:47;22.50;57.30
3770;DHT22;1900;48.890;9.190;2022-09-13T08:25:13;22.60;57.40
3770;DHT22;1900;48.890;9.190;2022-09-13T08:27:38;22.70;57.50
3770;DHT22;1900;48.890;9.190;2022-09-13T08:30:04;22.80;57.60
3770;DHT22;1900;48.890;9.190;2022-09-13T08:32:30;22.80;57.50
3770;DHT22;1900;48.890;9.190;2022-09-13T08:34:56;22.90;57.60
3770;DHT22;1900;48.890;9.190;2022-09-13T08:37:22;23.00;57.80
3770;DHT22;1900;48.890;9.190;2022-09-13T08:39:48;23.10;58.00
3770;DHT22;1900;48.890;9.190;2022-09-13T08:42:48;23.20;58.10
3770;DHT22;1900;48.890;9.190;2022-09-13T08:45:15;23.30;58.20
3770;DHT22;1900;48.890;9.190;2022-09-13T08:47:53;23.40;58.20
3770;DHT22;1900;48.890;9.190;2022-09-13T08:50:32;23.60;58.50
3770;DHT22;1900;48.890;9.190;2022-09-13T08:53:18;23.60;58.50
3770;DHT22;1900;48.890;9.190;2022-09-13T08:55:57;23.80;58.60
3770;DHT22;1900;48.890;9.190;2022-09-13T09:04:32;24.20;58.80
3770;DHT22;1900;48.890;9.190;2022-09-13T09:07:08;24.30;58.90
3770;DHT22;1900;48.890;9.190;2022-09-13T09:09:53;24.40;58.90
3770;DHT22;1900;48.890;9.190;2022-09-13T09:12:32;24.50;58.90
3770;DHT22;1900;48.890;9.190;2022-09-13T09:15:22;24.60;59.00
3770;DHT22;1900;48.890;9.190;2022-09-13T09:18:21;24.70;59.00
3770;DHT22;1900;48.890;9.190;2022-09-13T09:20:55;24.80;59.00
3770;DHT22;1900;48.890;9.190;2022-09-13T09:23:42;24.90;59.10
3770;DHT22;1900;48.890;9.190;2022-09-13T09:29:22;25.10;59.10
3770;DHT22;1900;48.890;9.190;2022-09-13T09:36:24;25.30;59.10
3770;DHT22;1900;48.890;9.190;2022-09-13T09:38:35;25.40;59.20
3770;DHT22;1900;48.890;9.190;2022-09-13T09:41:10;25.50;59.20
3770;DHT22;1900;48.890;9.190;2022-09-13T09:44:13;25.60;59.20
3770;DHT22;1900;48.890;9.190;2022-09-13T09:46:41;25.70;59.10
3770;DHT22;1900;48.890;9.190;2022-09-13T09:52:29;25.90;59.10
3770;DHT22;1900;48.890;9.190;2022-09-13T09:55:03;26.00;59.10
3770;DHT22;1900;48.890;9.190;2022-09-13T09:58:10;26.00;59.00
3770;DHT22;1900;48.890;9.190;2022-09-13T10:00:54;26.10;59.00
3770;DHT22;1900;48.890;9.190;2022-09-13T10:03:27;26.20;58.90
3770;DHT22;1900;48.890;9.190;2022-09-13T10:08:33;26.30;58.90
3770;DHT22;1900;48.890;9.190;2022-09-13T10:10:59;26.40;59.10
3770;DHT22;1900;48.890;9.190;2022-09-13T10:13:27;26.50;59.20
3770;DHT22;1900;48.890;9.190;2022-09-13T10:15:58;26.60;59.20
3770;DHT22;1900;48.890;9.190;2022-09-13T10:18:26;26.70;59.10
3770;DHT22;1900;48.890;9.190;2022-09-13T10:23:28;26.80;59.50
3770;DHT22;1900;48.890;9.190;2022-09-13T10:28:22;27.00;59.10
3770;DHT22;1900;48.890;9.190;2022-09-13T10:30:55;27.10;59.20
3770;DHT22;1900;48.890;9.190;2022-09-13T10:36:02;27.30;59.30
3770;DHT22;1900;48.890;9.190;2022-09-13T10:38:33;27.40;59.40
3770;DHT22;1900;48.890;9.190;2022-09-13T10:41:03;27.50;59.40
3770;DHT22;1900;48.890;9.190;2022-09-13T10:43:31;27.50;59.40
3770;DHT22;1900;48.890;9.190;2022-09-13T10:45:59;27.70;59.50
3770;DHT22;1900;48.890;9.190;2022-09-13T10:48:28;27.80;59.50
3770;DHT22;1900;48.890;9.190;2022-09-13T10:51:01;27.90;59.50
3770;DHT22;1900;48.890;9.190;2022-09-13T10:54:06;28.00;59.60
3770;DHT22;1900;48.890;9.190;2022-09-13T10:56:32;28.20;59.50
3770;DHT22;1900;48.890;9.190;2022-09-13T11:08:56;28.70;59.80
3770;DHT22;1900;48.890;9.190;2022-09-13T11:13:33;28.90;59.70
3770;DHT22;1900;48.890;9.190;2022-09-13T11:16:33;29.10;59.20
3770;DHT22;1900;48.890;9.190;2022-09-13T11:19:12;29.20;59.10
3770;DHT22;1900;48.890;9.190;2022-09-13T11:22:04;29.30;59.40
3770;DHT22;1900;48.890;9.190;2022-09-13T11:30:04;29.70;58.70
3770;DHT22;1900;48.890;9.190;2022-09-13T11:35:48;29.80;58.30
3770;DHT22;1900;48.890;9.190;2022-09-13T11:41:29;29.90;57.70
3770;DHT22;1900;48.890;9.190;2022-09-13T11:49:46;30.20;57.40
3770;DHT22;1900;48.890;9.190;2022-09-13T11:58:12;30.50;57.40
3770;DHT22;1900;48.890;9.190;2022-09-13T12:00:49;30.60;57.40
3770;DHT22;1900;48.890;9.190;2022-09-13T12:03:41;30.70;57.80
3770;DHT22;1900;48.890;9.190;2022-09-13T12:06:23;30.80;57.90
3770;DHT22;1900;48.890;9.190;2022-09-13T12:09:11;30.90;57.40
3770;DHT22;1900;48.890;9.190;2022-09-13T12:11:44;31.00;57.60
3770;DHT22;1900;48.890;9.190;2022-09-13T12:14:17;31.10;57.30
3770;DHT22;1900;48.890;9.190;2022-09-13T12:16:45;31.20;57.50
3770;DHT22;1900;48.890;9.190;2022-09-13T12:19:30;31.20;57.40
3770;DHT22;1900;48.890;9.190;2022-09-13T12:21:59;31.30;57.00
3770;DHT22;1900;48.890;9.190;2022-09-13T12:24:46;31.40;57.10
3770;DHT22;1900;48.890;9.190;2022-09-13T12:27:23;31.40;55.50
3770;DHT22;1900;48.890;9.190;2022-09-13T12:30:13;31.40;55.60
3770;DHT22;1900;48.890;9.190;2022-09-13T12:32:41;31.40;55.90
3770;DHT22;1900;48.890;9.190;2022-09-13T12:35:15;31.40;55.90
3770;DHT22;1900;48.890;9.190;2022-09-13T12:57:16;31.70;56.80
3770;DHT22;1900;48.890;9.190;2022-09-13T13:00:11;31.80;56.30
3770;DHT22;1900;48.890;9.190;2022-09-13T13:03:03;31.90;56.60
3770;DHT22;1900;48.890;9.190;2022-09-13T13:05:40;32.10;56.80
3770;DHT22;1900;48.890;9.190;2022-09-13T13:13:40;32.40;56.50
3770;DHT22;1900;48.890;9.190;2022-09-13T13:18:52;32.60;56.50
3770;DHT22;1900;48.890;9.190;2022-09-13T13:29:20;32.90;56.40
3770;DHT22;1900;48.890;9.190;2022-09-13T13:36:58;33.20;56.40
3770;DHT22;1900;48.890;9.190;2022-09-13T13:41:57;33.30;56.60
3770;DHT22;1900;48.890;9.190;2022-09-13T13:57:30;33.60;55.60
3770;DHT22;1900;48.890;9.190;2022-09-13T14:05:40;33.50;55.10
3770;DHT22;1900;48.890;9.190;2022-09-13T14:16:13;33.30;55.10
3770;DHT22;1900;48.890;9.190;2022-09-13T14:19:29;33.20;54.60
3770;DHT22;1900;48.890;9.190;2022-09-13T14:21:32;33.10;54.40
3770;DHT22;1900;48.890;9.190;2022-09-13T14:26:50;33.10;54.50
3770;DHT22;1900;48.890;9.190;2022-09-13T14:29:19;33.00;54.30
3770;DHT22;1900;48.890;9.190;2022-09-13T14:31:47;33.00;54.50
3770;DHT22;1900;48.890;9.190;2022-09-13T14:34:22;33.10;54.60
3770;DHT22;1900;48.890;9.190;2022-09-13T14:36:52;33.00;54.50
3770;DHT22;1900;48.890;9.190;2022-09-13T14:39:19;33.10;54.90
3770;DHT22;1900;48.890;9.190;2022-09-13T14:41:44;33.10;55.10
3770;DHT22;1900;48.890;9.190;2022-09-13T14:44:16;33.10;55.00
3770;DHT22;1900;48.890;9.190;2022-09-13T14:46:45;33.20;54.80
3770;DHT22;1900;48.890;9.190;2022-09-13T14:49:21;33.30;55.10
3770;DHT22;1900;48.890;9.190;2022-09-13T14:52:00;33.40;55.10
3770;DHT22;1900;48.890;9.190;2022-09-13T14:57:00;33.50;54.40
3770;DHT22;1900;48.890;9.190;2022-09-13T15:01:52;33.50;54.20
3770;DHT22;1900;48.890;9.190;2022-09-13T15:04:18;33.50;54.40
3770;DHT22;1900;48.890;9.190;2022-09-13T15:06:44;33.50;54.10
3770;DHT22;1900;48.890;9.190;2022-09-13T15:12:01;33.50;54.00
3770;DHT22;1900;48.890;9.190;2022-09-13T15:14:30;33.50;53.80
3770;DHT22;1900;48.890;9.190;2022-09-13T15:19:41;33.50;53.60
3770;DHT22;1900;48.890;9.190;2022-09-13T15:22:29;33.50;53.40
3770;DHT22;1900;48.890;9.190;2022-09-13T15:25:00;33.40;53.20
3770;DHT22;1900;48.890;9.190;2022-09-13T15:27:38;33.40;53.20
3770;DHT22;1900;48.890;9.190;2022-09-13T15:35:35;33.10;52.60
3770;DHT22;1900;48.890;9.190;2022-09-13T15:38:53;33.10;52.80
3770;DHT22;1900;48.890;9.190;2022-09-13T15:43:28;32.90;52.50
3770;DHT22;1900;48.890;9.190;2022-09-13T15:45:56;32.80;52.40
3770;DHT22;1900;48.890;9.190;2022-09-13T15:48:27;32.70;52.30
3770;DHT22;1900;48.890;9.190;2022-09-13T15:51:06;32.70;52.20
3770;DHT22;1900;48.890;9.190;2022-09-13T15:53:34;32.60;52.10
3770;DHT22;1900;48.890;9.190;2022-09-13T15:56:01;32.50;52.20
3770;DHT22;1900;48.890;9.190;2022-09-13T15:58:27;32.40;52.70
3770;DHT22;1900;48.890;9.190;2022-09-13T16:00:52;32.40;52.10
3770;DHT22;1900;48.890;9.190;2022-09-13T16:03:18;32.30;52.10
3770;DHT22;1900;48.890;9.190;2022-09-13T16:05:43;32.30;52.20
3770;DHT22;1900;48.890;9.190;2022-09-13T16:08:10;32.10;52.00
3770;DHT22;1900;48.890;9.190;2022-09-13T16:10:36;32.10;52.00
3770;DHT22;1900;48.890;9.190;2022-09-13T16:13:02;32.00;51.90
3770;DHT22;1900;48.890;9.190;2022-09-13T16:15:28;32.00;51.90
3770;DHT22;1900;48.890;9.190;2022-09-13T16:17:54;31.90;51.80
3770;DHT22;1900;48.890;9.190;2022-09-13T16:20:20;31.90;51.90
3770;DHT22;1900;48.890;9.190;2022-09-13T16:22:46;31.80;51.80
3770;DHT22;1900;48.890;9.190;2022-09-13T16:25:12;31.80;51.80
3770;DHT22;1900;48.890;9.190;2022-09-13T16:27:39;31.70;51.70
3770;DHT22;1900;48.890;9.190;2022-09-13T16:30:06;31.60;51.70
3770;DHT22;1900;48.890;9.190;2022-09-13T16:32:31;31.60;51.80
3770;DHT22;1900;48.890;9.190;2022-09-13T16:34:57;31.50;51.70
3770;DHT22;1900;48.890;9.190;2022-09-13T16:37:23;31.50;51.80
3770;DHT22;1900;48.890;9.190;2022-09-13T16:39:49;31.40;51.80
3770;DHT22;1900;48.890;9.190;2022-09-13T16:42:15;31.40;51.80
3770;DHT22;1900;48.890;9.190;2022-09-13T16:44:44;31.30;51.80
3770;DHT22;1900;48.890;9.190;2022-09-13T16:47:10;31.30;51.80
3770;DHT22;1900;48.890;9.190;2022-09-13T16:49:36;31.20;51.80
3770;DHT22;1900;48.890;9.190;2022-09-13T16:52:02;31.20;51.80
3770;DHT22;1900;48.890;9.190;2022-09-13T16:54:28;31.20;51.90
3770;DHT22;1900;48.890;9.190;2022-09-13T16:57:00;31.10;51.90
3770;DHT22;1900;48.890;9.190;2022-09-13T16:59:25;31.10;51.90
3770;DHT22;1900;48.890;9.190;2022-09-13T17:01:51;31.00;51.90
3770;DHT22;1900;48.890;9.190;2022-09-13T17:04:18;31.00;51.90
3770;DHT22;1900;48.890;9.190;2022-09-13T17:06:43;30.90;51.90
3770;DHT22;1900;48.890;9.190;2022-09-13T17:09:10;30.90;51.90
3770;DHT22;1900;48.890;9.190;2022-09-13T17:11:38;30.90;51.90
3770;DHT22;1900;48.890;9.190;2022-09-13T17:14:07;30.80;51.90
3770;DHT22;1900;48.890;9.190;2022-09-13T17:16:39;30.80;51.90
3770;DHT22;1900;48.890;9.190;2022-09-13T17:19:15;30.70;51.90
3770;DHT22;1900;48.890;9.190;2022-09-13T17:21:42;30.70;51.90
3770;DHT22;1900;48.890;9.190;2022-09-13T17:24:09;30.70;51.90
3770;DHT22;1900;48.890;9.190;2022-09-13T17:26:35;30.60;51.90
3770;DHT22;1900;48.890;9.190;2022-09-13T17:29:01;30.60;51.90
3770;DHT22;1900;48.890;9.190;2022-09-13T17:31:27;30.50;51.90
3770;DHT22;1900;48.890;9.190;2022-09-13T17:33:53;30.50;51.90
3770;DHT22;1900;48.890;9.190;2022-09-13T17:36:19;30.40;51.80
3770;DHT22;1900;48.890;9.190;2022-09-13T17:38:45;30.40;51.80
3770;DHT22;1900;48.890;9.190;2022-09-13T17:41:16;30.30;51.80
3770;DHT22;1900;48.890;9.190;2022-09-13T17:43:44;30.30;51.80
3770;DHT22;1900;48.890;9.190;2022-09-13T17:46:18;30.30;51.90
3770;DHT22;1900;48.890;9.190;2022-09-13T17:48:52;30.20;51.80
3770;DHT22;1900;48.890;9.190;2022-09-13T17:51:20;30.20;51.80
3770;DHT22;1900;48.890;9.190;2022-09-13T17:53:47;30.10;51.80
3770;DHT22;1900;48.890;9.190;2022-09-13T17:56:18;30.00;51.80
3770;DHT22;1900;48.890;9.190;2022-09-13T17:58:45;30.00;51.80
3770;DHT22;1900;48.890;9.190;2022-09-13T18:01:11;30.00;51.80
3770;DHT22;1900;48.890;9.190;2022-09-13T18:03:37;29.90;51.80
3770;DHT22;1900;48.890;9.190;2022-09-13T18:06:05;29.90;51.80
3770;DHT22;1900;48.890;9.190;2022-09-13T18:08:34;29.80;51.70
3770;DHT22;1900;48.890;9.190;2022-09-13T18:11:02;29.70;51.70
3770;DHT22;1900;48.890;9.190;2022-09-13T18:13:28;29.70;51.70
3770;DHT22;1900;48.890;9.190;2022-09-13T18:16:17;29.70;52.30
3770;DHT22;1900;48.890;9.190;2022-09-13T18:18:43;29.60;51.70
3770;DHT22;1900;48.890;9.190;2022-09-13T18:21:13;29.50;51.70
3770;DHT22;1900;48.890;9.190;2022-09-13T18:23:39;29.50;51.70
3770;DHT22;1900;48.890;9.190;2022-09-13T18:26:08;29.50;51.80
3770;DHT22;1900;48.890;9.190;2022-09-13T18:28:34;29.40;51.70
3770;DHT22;1900;48.890;9.190;2022-09-13T18:31:02;29.40;51.80
3770;DHT22;1900;48.890;9.190;2022-09-13T18:33:31;29.30;51.70
3770;DHT22;1900;48.890;9.190;2022-09-13T18:36:01;29.30;51.70
3770;DHT22;1900;48.890;9.190;2022-09-13T18:38:31;29.30;51.70
3770;DHT22;1900;48.890;9.190;2022-09-13T18:41:05;29.20;51.70
3770;DHT22;1900;48.890;9.190;2022-09-13T18:43:32;29.10;51.70
3770;DHT22;1900;48.890;9.190;2022-09-13T18:46:00;29.10;51.70
3770;DHT22;1900;48.890;9.190;2022-09-13T18:48:30;29.10;51.60
3770;DHT22;1900;48.890;9.190;2022-09-13T18:50:57;29.00;51.60
3770;DHT22;1900;48.890;9.190;2022-09-13T18:53:23;29.00;51.60
3770;DHT22;1900;48.890;9.190;2022-09-13T18:55:48;28.90;51.60
3770;DHT22;1900;48.890;9.190;2022-09-13T18:58:14;28.90;51.60
3770;DHT22;1900;48.890;9.190;2022-09-13T19:00:40;28.80;51.60
3770;DHT22;1900;48.890;9.190;2022-09-13T19:03:08;28.80;51.60
3770;DHT22;1900;48.890;9.190;2022-09-13T19:05:36;28.70;51.60
3770;DHT22;1900;48.890;9.190;2022-09-13T19:08:08;28.70;51.60
3770;DHT22;1900;48.890;9.190;2022-09-13T19:10:35;28.70;51.60
3770;DHT22;1900;48.890;9.190;2022-09-13T19:13:01;28.60;51.60
3770;DHT22;1900;48.890;9.190;2022-09-13T19:15:26;28.60;51.60
3770;DHT22;1900;48.890;9.190;2022-09-13T19:17:52;28.50;51.60
3770;DHT22;1900;48.890;9.190;2022-09-13T19:20:18;28.50;51.60
3770;DHT22;1900;48.890;9.190;2022-09-13T19:22:45;28.50;51.60
3770;DHT22;1900;48.890;9.190;2022-09-13T19:25:11;28.40;51.60
3770;DHT22;1900;48.890;9.190;2022-09-13T19:27:36;28.40;51.60
3770;DHT22;1900;48.890;9.190;2022-09-13T19:30:02;28.40;51.60
3770;DHT22;1900;48.890;9.190;2022-09-13T19:32:28;28.30;51.60
3770;DHT22;1900;48.890;9.190;2022-09-13T19:34:54;28.30;51.70
3770;DHT22;1900;48.890;9.190;2022-09-13T19:37:20;28.20;51.60
3770;DHT22;1900;48.890;9.190;2022-09-13T19:39:45;28.20;51.60
3770;DHT22;1900;48.890;9.190;2022-09-13T19:42:11;28.20;51.70
3770;DHT22;1900;48.890;9.190;2022-09-13T19:44:37;28.10;51.70
3770;DHT22;1900;48.890;9.190;2022-09-13T19:47:03;28.10;52.30
3770;DHT22;1900;48.890;9.190;2022-09-13T19:49:30;28.10;51.70
3770;DHT22;1900;48.890;9.190;2022-09-13T19:51:55;28.00;51.60
3770;DHT22;1900;48.890;9.190;2022-09-13T19:54:21;28.00;51.60
3770;DHT22;1900;48.890;9.190;2022-09-13T19:56:47;28.00;51.70